Time;durP1;ratioP1;P1;durP2;ratioP2;P2;SDS_P1;SDS_P2;PMS_P1;PMS_P2;Temp;Humidity;BMP_temperature;BMP_pressure;BME280_temperature;BME280_humidity;BME280_pressure;Samples;Min_cycle;Max_cycle;Signal;HPM_P1;HPM_P2
2021/04/03 00:01:15;;;;;;;19.42;3.88;;;;;;;;;;5046571;28;32278;-71
2021/04/03 00:03:41;;;;;;;10.35;3.90;;;;;;;;;;5058738;28;32371;-72
2021/04/03 00:06:07;;;;;;;11.93;3.65;;;;;;;;;;5056541;28;32910;-71
2021/04/03 00:08:32;;;;;;;14.32;4.03;;;;;;;;;;5048756;28;32010;-72
2021/04/03 00:11:00;;;;;;;9.30;3.92;;;;;;;;;;5036470;28;32230;-70
2021/04/03 00:13:27;;;;;;;18.48;4.20;;;;;;;;;;5037224;28;32173;-70
2021/04/03 00:15:52;;;;;;;21.55;4.97;;;;;;;;;;5041694;28;31914;-71
2021/04/03 00:18:18;;;;;;;18.10;3.72;;;;;;;;;;5056466;28;32564;-71
2021/04/03 00:20:46;;;;;;;18.20;3.80;;;;;;;;;;5057059;28;32248;-72
2021/04/03 00:23:12;;;;;;;21.50;3.85;;;;;;;;;;5040994;28;31618;-71
2021/04/03 00:25:38;;;;;;;19.13;4.50;;;;;;;;;;5037407;28;31598;-72
2021/04/03 00:28:03;;;;;;;16.48;3.28;;;;;;;;;;5036885;28;32545;-71
2021/04/03 00:30:29;;;;;;;17.13;4.03;;;;;;;;;;5056395;28;32809;-72
2021/04/03 00:32:56;;;;;;;15.20;3.65;;;;;;;;;;5056460;28;32222;-71
2021/04/03 00:35:23;;;;;;;14.75;3.40;;;;;;;;;;5056668;28;32228;-71
2021/04/03 00:37:49;;;;;;;14.77;3.22;;;;;;;;;;5055860;28;32471;-70
2021/04/03 00:40:17;;;;;;;19.35;3.88;;;;;;;;;;5054157;28;32618;-72
2021/04/03 00:42:44;;;;;;;17.05;4.03;;;;;;;;;;5057141;28;32713;-72
2021/04/03 00:45:10;;;;;;;17.65;3.78;;;;;;;;;;5056821;28;32000;-72
2021/04/03 00:47:36;;;;;;;16.67;4.13;;;;;;;;;;5054088;28;31424;-71
2021/04/03 00:50:02;;;;;;;22.35;3.88;;;;;;;;;;5052524;28;33133;-71
2021/04/03 00:52:29;;;;;;;18.13;3.70;;;;;;;;;;5037270;28;32133;-72
2021/04/03 00:54:56;;;;;;;18.23;4.35;;;;;;;;;;5059002;28;32052;-71
2021/04/03 00:57:23;;;;;;;16.05;3.63;;;;;;;;;;5056838;28;30904;-73
2021/04/03 00:59:49;;;;;;;16.83;4.20;;;;;;;;;;5054290;28;35434;-72
2021/04/03 01:02:15;;;;;;;20.52;3.90;;;;;;;;;;5053817;28;31846;-70
2021/04/03 01:04:41;;;;;;;14.90;3.50;;;;;;;;;;5059178;28;30565;-69
2021/04/03 01:07:08;;;;;;;22.65;5.18;;;;;;;;;;5057316;28;32214;-73
2021/04/03 01:09:37;;;;;;;12.65;4.00;;;;;;;;;;5045007;28;32683;-71
2021/04/03 01:12:21;;;;;;;15.38;3.50;;;;;;;;;;5058035;28;31640;-71
2021/04/03 01:14:59;;;;;;;17.30;4.38;;;;;;;;;;5057275;28;32038;-71
2021/04/03 01:17:49;;;;;;;15.30;3.72;;;;;;;;;;5058124;28;35225;-73
2021/04/03 01:20:24;;;;;;;14.80;4.50;;;;;;;;;;5039261;28;32056;-71
2021/04/03 01:22:57;;;;;;;17.30;4.50;;;;;;;;;;5040824;28;31982;-71
2021/04/03 01:25:45;;;;;;;12.95;3.80;;;;;;;;;;5038492;28;30564;-71
2021/04/03 01:28:11;;;;;;;16.55;3.28;;;;;;;;;;5049096;28;32055;-71
2021/04/03 01:30:39;;;;;;;16.77;3.30;;;;;;;;;;5039605;28;32554;-70
2021/04/03 01:33:06;;;;;;;20.42;3.60;;;;;;;;;;5044666;28;31080;-70
2021/04/03 01:35:38;;;;;;;19.48;3.80;;;;;;;;;;5055480;28;30642;-71
2021/04/03 01:38:08;;;;;;;16.15;3.33;;;;;;;;;;5058354;28;31156;-71
2021/04/03 01:40:38;;;;;;;23.38;3.50;;;;;;;;;;5059330;28;31045;-71
2021/04/03 01:43:09;;;;;;;20.73;4.47;;;;;;;;;;5060196;28;36325;-71
2021/04/03 01:45:38;;;;;;;17.48;3.75;;;;;;;;;;5058548;28;30553;-71
2021/04/03 01:48:05;;;;;;;11.60;3.35;;;;;;;;;;5059734;28;32270;-71
2021/04/03 01:50:32;;;;;;;12.05;2.97;;;;;;;;;;5058689;28;31096;-71
2021/04/03 01:52:59;;;;;;;15.63;3.17;;;;;;;;;;5059015;28;31838;-72
2021/04/03 01:55:26;;;;;;;14.65;2.80;;;;;;;;;;5058953;28;31728;-72
2021/04/03 01:57:52;;;;;;;16.80;3.83;;;;;;;;;;5060139;28;32984;-72
2021/04/03 02:00:20;;;;;;;11.45;2.90;;;;;;;;;;5059863;28;32523;-72
2021/04/03 02:02:58;;;;;;;15.18;3.75;;;;;;;;;;5058416;28;31080;-72
2021/04/03 02:05:26;;;;;;;15.32;3.42;;;;;;;;;;5057150;28;31570;-72
2021/04/03 02:08:06;;;;;;;20.42;2.95;;;;;;;;;;5059342;28;32949;-71
2021/04/03 02:10:33;;;;;;;15.15;3.97;;;;;;;;;;5058685;28;32171;-71
2021/04/03 02:13:04;;;;;;;19.33;2.97;;;;;;;;;;5059771;28;32274;-72
2021/04/03 02:15:35;;;;;;;18.80;3.58;;;;;;;;;;5058780;28;30470;-71
2021/04/03 02:18:03;;;;;;;19.02;3.88;;;;;;;;;;5059959;28;32047;-72
2021/04/03 02:20:35;;;;;;;17.02;3.58;;;;;;;;;;5057842;28;31436;-72
2021/04/03 02:23:02;;;;;;;17.70;2.65;;;;;;;;;;5059995;28;32179;-72
2021/04/03 02:25:28;;;;;;;18.73;2.20;;;;;;;;;;5059516;28;31446;-72
2021/04/03 02:27:55;;;;;;;8.75;1.95;;;;;;;;;;5058586;28;30620;-71
2021/04/03 02:30:23;;;;;;;17.20;2.63;;;;;;;;;;5059563;28;32470;-72
2021/04/03 02:32:54;;;;;;;14.52;2.47;;;;;;;;;;5058547;28;30861;-72
2021/04/03 02:35:21;;;;;;;16.55;2.00;;;;;;;;;;5057431;28;30873;-72
2021/04/03 02:37:48;;;;;;;17.58;2.20;;;;;;;;;;5057699;28;31464;-72
2021/04/03 02:40:17;;;;;;;8.60;2.15;;;;;;;;;;5059177;28;33068;-71
2021/04/03 02:42:48;;;;;;;18.50;2.85;;;;;;;;;;5058863;28;33082;-72
2021/04/03 02:45:17;;;;;;;14.45;2.70;;;;;;;;;;5057637;28;31364;-72
2021/04/03 02:47:47;;;;;;;12.15;2.50;;;;;;;;;;5058336;28;31027;-72
2021/04/03 02:50:17;;;;;;;15.98;2.10;;;;;;;;;;5057849;28;31148;-72
2021/04/03 02:52:47;;;;;;;10.48;1.90;;;;;;;;;;5058791;28;32313;-72
2021/04/03 02:55:13;;;;;;;8.98;2.33;;;;;;;;;;5058491;28;30326;-72
2021/04/03 02:57:40;;;;;;;13.40;2.83;;;;;;;;;;5058445;28;32022;-72
2021/04/03 03:00:09;;;;;;;13.18;2.65;;;;;;;;;;5057968;28;32273;-71
2021/04/03 03:02:37;;;;;;;14.90;2.78;;;;;;;;;;5060542;28;32322;-72
2021/04/03 03:05:08;;;;;;;19.42;4.25;;;;;;;;;;5057906;28;30352;-73
2021/04/03 03:07:34;;;;;;;17.70;3.22;;;;;;;;;;5059090;28;32238;-72
2021/04/03 03:10:02;;;;;;;13.25;2.72;;;;;;;;;;5057826;28;31307;-73
2021/04/03 03:12:29;;;;;;;12.02;2.72;;;;;;;;;;5058183;28;32250;-72
2021/04/03 03:14:56;;;;;;;11.73;2.83;;;;;;;;;;5058138;28;30497;-72
2021/04/03 03:17:24;;;;;;;15.27;2.95;;;;;;;;;;5058080;28;31908;-73
2021/04/03 03:19:58;;;;;;;20.33;3.13;;;;;;;;;;5059257;28;32620;-72
2021/04/03 03:22:25;;;;;;;14.93;2.95;;;;;;;;;;5057546;28;30930;-73
2021/04/03 03:24:51;;;;;;;12.95;2.35;;;;;;;;;;5056966;28;32032;-73
2021/04/03 03:27:18;;;;;;;13.50;3.00;;;;;;;;;;5058343;28;30592;-72
2021/04/03 03:29:45;;;;;;;18.45;3.13;;;;;;;;;;5059028;28;32707;-72
2021/04/03 03:32:11;;;;;;;12.05;2.63;;;;;;;;;;5058271;28;30836;-73
2021/04/03 03:34:44;;;;;;;8.13;2.28;;;;;;;;;;5058401;28;31788;-72
2021/04/03 03:37:11;;;;;;;15.32;3.60;;;;;;;;;;5059636;28;31590;-74
2021/04/03 03:39:44;;;;;;;16.90;3.38;;;;;;;;;;5057564;28;32688;-72
2021/04/03 03:42:13;;;;;;;11.40;2.95;;;;;;;;;;5057767;28;30830;-72
2021/04/03 03:44:40;;;;;;;19.05;2.58;;;;;;;;;;5059618;28;32085;-73
2021/04/03 03:47:06;;;;;;;12.73;3.00;;;;;;;;;;5057887;28;30551;-73
2021/04/03 03:49:33;;;;;;;15.60;2.95;;;;;;;;;;5055315;28;31102;-73
2021/04/03 03:51:59;;;;;;;8.40;2.55;;;;;;;;;;5057793;28;32355;-73
2021/04/03 03:54:25;;;;;;;10.00;2.38;;;;;;;;;;5057122;28;36107;-73
2021/04/03 03:56:52;;;;;;;19.27;2.47;;;;;;;;;;5056765;28;30599;-72
2021/04/03 03:59:18;;;;;;;17.08;2.92;;;;;;;;;;5057638;28;32664;-73
2021/04/03 04:01:44;;;;;;;18.70;2.85;;;;;;;;;;5057791;28;32968;-73
2021/04/03 04:04:10;;;;;;;22.08;4.00;;;;;;;;;;5056041;28;31353;-72
2021/04/03 04:06:36;;;;;;;11.98;2.63;;;;;;;;;;5057973;28;30671;-73
2021/04/03 04:09:03;;;;;;;15.93;2.53;;;;;;;;;;5058536;28;32725;-74
2021/04/03 04:11:34;;;;;;;20.20;3.15;;;;;;;;;;5056769;28;30957;-72
2021/04/03 04:14:06;;;;;;;17.85;2.90;;;;;;;;;;5056855;28;31309;-72
2021/04/03 04:16:40;;;;;;;11.88;2.58;;;;;;;;;;5058946;28;32094;-72
2021/04/03 04:19:08;;;;;;;16.52;2.75;;;;;;;;;;5057239;28;31167;-73
2021/04/03 04:21:34;;;;;;;21.02;3.45;;;;;;;;;;5055348;28;30720;-72
2021/04/03 04:24:01;;;;;;;17.55;3.00;;;;;;;;;;5059187;28;31711;-73
2021/04/03 04:26:28;;;;;;;17.70;2.97;;;;;;;;;;5057320;28;31812;-73
2021/04/03 04:28:55;;;;;;;15.20;3.38;;;;;;;;;;5058883;28;32668;-73
2021/04/03 04:31:26;;;;;;;18.33;3.17;;;;;;;;;;5057854;28;31408;-73
2021/04/03 04:34:00;;;;;;;16.33;4.07;;;;;;;;;;5058652;28;30494;-72
2021/04/03 04:36:26;;;;;;;20.25;3.42;;;;;;;;;;5058250;28;30608;-73
2021/04/03 04:38:53;;;;;;;16.42;3.22;;;;;;;;;;5059706;28;32712;-72
2021/04/03 04:41:22;;;;;;;18.95;3.63;;;;;;;;;;5061717;28;32548;-72
2021/04/03 04:43:50;;;;;;;16.17;2.78;;;;;;;;;;5060246;28;31922;-72
2021/04/03 04:46:16;;;;;;;15.65;3.10;;;;;;;;;;5043424;28;30438;-72
2021/04/03 04:48:49;;;;;;;15.02;3.15;;;;;;;;;;5060023;28;32480;-72
2021/04/03 04:51:21;;;;;;;27.65;3.88;;;;;;;;;;5061377;28;33104;-73
2021/04/03 04:53:48;;;;;;;21.77;4.13;;;;;;;;;;5059830;28;31689;-73
2021/04/03 04:56:17;;;;;;;15.18;3.20;;;;;;;;;;5068243;28;30721;-72
2021/04/03 04:58:44;;;;;;;20.27;2.70;;;;;;;;;;5071707;28;32404;-72
2021/04/03 05:01:13;;;;;;;19.17;3.47;;;;;;;;;;5068489;28;33299;-72
2021/04/03 05:03:44;;;;;;;16.95;3.55;;;;;;;;;;5062258;28;30869;-72
2021/04/03 05:06:09;;;;;;;14.45;2.85;;;;;;;;;;5061745;28;32545;-72
2021/04/03 05:08:35;;;;;;;19.30;3.03;;;;;;;;;;5060370;28;32435;-72
2021/04/03 05:11:01;;;;;;;15.52;3.13;;;;;;;;;;5061376;28;33163;-72
2021/04/03 05:13:26;;;;;;;18.08;3.28;;;;;;;;;;5060623;28;31160;-73
2021/04/03 05:15:53;;;;;;;17.52;3.70;;;;;;;;;;5058240;28;32088;-72
2021/04/03 05:18:34;;;;;;;19.67;3.90;;;;;;;;;;5062930;28;32447;-74
2021/04/03 05:21:03;;;;;;;20.30;4.45;;;;;;;;;;5063199;28;32868;-74
2021/04/03 05:23:29;;;;;;;16.05;2.83;;;;;;;;;;5058626;28;32262;-72
2021/04/03 05:25:55;;;;;;;23.77;3.40;;;;;;;;;;5061878;28;33210;-72
2021/04/03 05:28:20;;;;;;;9.88;2.90;;;;;;;;;;5060104;28;32820;-71
2021/04/03 05:30:46;;;;;;;17.63;3.75;;;;;;;;;;5057662;28;33237;-73
2021/04/03 05:33:12;;;;;;;16.67;3.17;;;;;;;;;;5060549;28;31916;-74
2021/04/03 05:35:37;;;;;;;24.25;3.10;;;;;;;;;;5062406;28;30780;-71
2021/04/03 05:38:03;;;;;;;25.95;3.58;;;;;;;;;;5068970;28;32848;-71
2021/04/03 05:40:29;;;;;;;15.13;3.17;;;;;;;;;;5057712;28;32094;-72
2021/04/03 05:42:55;;;;;;;24.40;4.05;;;;;;;;;;5059973;28;32917;-70
2021/04/03 05:45:23;;;;;;;17.25;3.25;;;;;;;;;;5060621;28;32082;-71
2021/04/03 05:47:49;;;;;;;25.63;3.20;;;;;;;;;;5059993;28;32343;-72
2021/04/03 05:50:15;;;;;;;18.80;3.25;;;;;;;;;;5060631;28;32890;-71
2021/04/03 05:52:41;;;;;;;24.23;3.13;;;;;;;;;;5059545;28;31802;-72
2021/04/03 05:55:07;;;;;;;17.65;3.28;;;;;;;;;;5059842;28;32619;-71
2021/04/03 05:57:34;;;;;;;19.95;4.07;;;;;;;;;;5058527;28;32552;-72
2021/04/03 06:00:00;;;;;;;17.67;2.95;;;;;;;;;;5060262;28;32407;-71
2021/04/03 06:02:26;;;;;;;18.40;3.35;;;;;;;;;;5060061;28;31990;-73
2021/04/03 06:04:52;;;;;;;21.00;3.70;;;;;;;;;;5060053;28;32047;-74
2021/04/03 06:07:18;;;;;;;15.48;2.83;;;;;;;;;;5061641;28;32697;-73
2021/04/03 06:09:44;;;;;;;18.80;2.63;;;;;;;;;;5060037;28;31921;-71
2021/04/03 06:12:10;;;;;;;20.38;3.17;;;;;;;;;;5059870;28;31966;-71
2021/04/03 06:14:36;;;;;;;12.85;2.70;;;;;;;;;;5060257;28;32034;-71
2021/04/03 06:17:02;;;;;;;11.43;2.92;;;;;;;;;;5059291;28;32866;-72
2021/04/03 06:19:28;;;;;;;12.57;2.67;;;;;;;;;;5057277;28;32329;-72
2021/04/03 06:21:55;;;;;;;12.32;2.35;;;;;;;;;;5057568;28;31461;-72
2021/04/03 06:24:22;;;;;;;18.83;3.22;;;;;;;;;;5061326;28;31898;-72
2021/04/03 06:26:53;;;;;;;18.77;2.20;;;;;;;;;;5059445;28;32480;-72
2021/04/03 06:29:37;;;;;;;18.00;2.80;;;;;;;;;;5058035;28;30253;-72
2021/04/03 06:32:04;;;;;;;10.13;2.50;;;;;;;;;;5059686;28;32040;-73
2021/04/03 06:34:31;;;;;;;8.70;2.25;;;;;;;;;;5058545;28;30882;-70
2021/04/03 06:36:57;;;;;;;9.70;1.92;;;;;;;;;;5059967;28;32445;-71
2021/04/03 06:39:23;;;;;;;20.98;3.45;;;;;;;;;;5059215;28;32150;-72
2021/04/03 06:41:49;;;;;;;16.70;2.78;;;;;;;;;;5057465;28;32636;-70
2021/04/03 06:44:15;;;;;;;13.02;2.60;;;;;;;;;;5059342;28;32011;-71
2021/04/03 06:46:48;;;;;;;9.00;2.22;;;;;;;;;;5048212;28;33117;-71
2021/04/03 06:49:16;;;;;;;14.82;2.90;;;;;;;;;;5055336;28;32905;-71
2021/04/03 06:51:43;;;;;;;19.05;2.75;;;;;;;;;;5057425;28;32026;-73
2021/04/03 06:54:09;;;;;;;17.25;2.97;;;;;;;;;;5056887;28;31388;-71
2021/04/03 06:56:35;;;;;;;13.38;2.45;;;;;;;;;;5056278;28;32400;-70
2021/04/03 06:59:05;;;;;;;17.42;2.75;;;;;;;;;;5058123;28;32202;-71
2021/04/03 07:01:51;;;;;;;16.52;3.28;;;;;;;;;;5056128;28;32671;-70
2021/04/03 07:04:27;;;;;;;16.55;2.60;;;;;;;;;;5056638;28;32798;-71
2021/04/03 07:06:54;;;;;;;11.88;3.22;;;;;;;;;;5036409;28;32452;-70
2021/04/03 07:09:20;;;;;;;21.65;3.47;;;;;;;;;;5035544;28;32266;-72
2021/04/03 07:11:47;;;;;;;17.65;3.00;;;;;;;;;;5041304;28;33202;-71
2021/04/03 07:14:14;;;;;;;18.02;3.05;;;;;;;;;;5057788;28;31734;-71
2021/04/03 07:16:41;;;;;;;19.38;3.30;;;;;;;;;;5056071;28;31014;-71
2021/04/03 07:19:09;;;;;;;17.98;3.58;;;;;;;;;;5056945;28;31843;-72
2021/04/03 07:21:34;;;;;;;21.35;2.90;;;;;;;;;;5035843;28;31997;-70
2021/04/03 07:24:00;;;;;;;22.50;3.20;;;;;;;;;;5039349;28;32086;-69
2021/04/03 07:26:26;;;;;;;24.98;3.78;;;;;;;;;;5038042;28;32125;-70
2021/04/03 07:28:52;;;;;;;18.63;2.92;;;;;;;;;;5038766;28;32400;-69
2021/04/03 07:31:36;;;;;;;18.30;3.38;;;;;;;;;;5056608;28;32945;-72
2021/04/03 07:34:03;;;;;;;13.80;4.10;;;;;;;;;;5057827;28;20066;-69
2021/04/03 07:36:32;;;;;;;17.27;2.90;;;;;;;;;;5055962;28;33473;-70
2021/04/03 07:38:58;;;;;;;14.48;3.17;;;;;;;;;;5046332;28;32432;-69
2021/04/03 07:41:24;;;;;;;19.75;3.30;;;;;;;;;;5062034;28;31645;-70
2021/04/03 07:43:50;;;;;;;17.20;3.53;;;;;;;;;;5070062;28;31861;-71
2021/04/03 07:46:21;;;;;;;19.08;3.13;;;;;;;;;;5056622;28;33097;-69
2021/04/03 07:48:48;;;;;;;14.43;2.22;;;;;;;;;;5052464;28;32079;-70
2021/04/03 07:51:17;;;;;;;20.90;3.08;;;;;;;;;;5056196;28;31973;-69
2021/04/03 07:53:47;;;;;;;14.45;3.35;;;;;;;;;;5054704;28;31287;-69
2021/04/03 07:56:15;;;;;;;17.52;3.22;;;;;;;;;;5056451;28;33245;-69
2021/04/03 07:58:48;;;;;;;26.42;3.67;;;;;;;;;;5055700;28;33245;-74
2021/04/03 08:01:14;;;;;;;18.83;3.25;;;;;;;;;;5057311;28;31600;-74
2021/04/03 08:03:40;;;;;;;17.50;2.53;;;;;;;;;;5053658;28;32990;-74
2021/04/03 08:06:08;;;;;;;13.45;2.95;;;;;;;;;;5056552;28;32067;-74
2021/04/03 08:08:38;;;;;;;14.25;2.45;;;;;;;;;;5055313;28;32297;-72
2021/04/03 08:11:08;;;;;;;23.38;3.00;;;;;;;;;;5056435;28;32081;-74
2021/04/03 08:13:44;;;;;;;16.45;3.13;;;;;;;;;;5053219;28;32102;-73
2021/04/03 08:16:11;;;;;;;14.40;3.25;;;;;;;;;;5054381;28;32558;-74
2021/04/03 08:18:38;;;;;;;22.60;3.03;;;;;;;;;;5056280;28;32239;-75
2021/04/03 08:21:04;;;;;;;13.45;2.88;;;;;;;;;;5056166;28;31951;-74
2021/04/03 08:23:32;;;;;;;16.10;3.13;;;;;;;;;;5057095;28;32281;-76
2021/04/03 08:25:57;;;;;;;14.32;2.95;;;;;;;;;;5063483;28;32268;-76
2021/04/03 08:28:23;;;;;;;9.88;2.47;;;;;;;;;;5063995;28;32342;-72
2021/04/03 08:30:49;;;;;;;14.75;3.10;;;;;;;;;;5045396;28;31857;-72
2021/04/03 08:33:17;;;;;;;22.85;2.95;;;;;;;;;;5037887;28;31996;-74
2021/04/03 08:35:44;;;;;;;18.45;2.88;;;;;;;;;;5055804;28;32632;-76
2021/04/03 08:38:11;;;;;;;19.58;2.88;;;;;;;;;;5054240;28;33521;-73
2021/04/03 08:40:37;;;;;;;12.82;2.60;;;;;;;;;;5047294;28;31948;-74
2021/04/03 08:43:03;;;;;;;13.75;2.13;;;;;;;;;;5056419;28;32190;-74
2021/04/03 08:45:35;;;;;;;11.95;2.38;;;;;;;;;;5054838;28;33293;-74
2021/04/03 08:48:01;;;;;;;24.77;2.72;;;;;;;;;;5056724;28;32197;-74
2021/04/03 08:50:27;;;;;;;19.60;2.78;;;;;;;;;;5055441;28;32853;-76
2021/04/03 08:52:59;;;;;;;16.95;2.75;;;;;;;;;;5056230;28;32969;-73
2021/04/03 08:55:26;;;;;;;40.47;4.45;;;;;;;;;;5056102;28;33594;-71
2021/04/03 08:57:52;;;;;;;15.07;3.38;;;;;;;;;;5062230;28;32264;-72
2021/04/03 09:00:20;;;;;;;22.23;4.63;;;;;;;;;;5063883;28;32862;-72
2021/04/03 09:02:47;;;;;;;18.85;2.95;;;;;;;;;;5055645;28;32805;-72
2021/04/03 09:05:13;;;;;;;21.85;2.97;;;;;;;;;;5057733;28;32552;-73
2021/04/03 09:07:40;;;;;;;15.25;3.17;;;;;;;;;;5056669;28;32415;-71
2021/04/03 09:10:07;;;;;;;21.02;3.38;;;;;;;;;;5058987;28;32957;-71
2021/04/03 09:12:33;;;;;;;20.95;3.70;;;;;;;;;;5056168;28;32062;-75
2021/04/03 09:14:59;;;;;;;21.33;3.55;;;;;;;;;;5057505;28;32526;-72
2021/04/03 09:17:25;;;;;;;21.48;4.03;;;;;;;;;;5060933;28;36271;-72
2021/04/03 09:19:52;;;;;;;19.88;3.97;;;;;;;;;;5052189;28;33111;-72
2021/04/03 09:22:18;;;;;;;21.88;3.38;;;;;;;;;;5043676;28;32915;-72
2021/04/03 09:24:56;;;;;;;25.42;4.28;;;;;;;;;;5069826;28;33502;-72
2021/04/03 09:27:22;;;;;;;30.77;4.65;;;;;;;;;;5067435;28;32218;-74
2021/04/03 09:29:49;;;;;;;18.70;3.15;;;;;;;;;;5063195;28;31876;-71
2021/04/03 09:32:16;;;;;;;19.08;3.15;;;;;;;;;;5064206;28;32195;-71
2021/04/03 09:34:42;;;;;;;21.88;3.75;;;;;;;;;;5059417;28;32299;-73
2021/04/03 09:37:11;;;;;;;29.35;4.43;;;;;;;;;;5064979;28;32293;-74
2021/04/03 09:39:46;;;;;;;14.23;2.30;;;;;;;;;;5055564;28;31720;-72
2021/04/03 09:42:13;;;;;;;11.23;2.85;;;;;;;;;;5063987;28;32954;-71
2021/04/03 09:44:38;;;;;;;19.98;3.67;;;;;;;;;;5051457;28;33474;-72
2021/04/03 09:47:04;;;;;;;19.67;3.58;;;;;;;;;;5050837;28;32908;-77
2021/04/03 09:49:30;;;;;;;20.58;3.53;;;;;;;;;;5058184;28;31886;-75
2021/04/03 09:51:58;;;;;;;18.85;4.18;;;;;;;;;;5058300;28;32628;-72
2021/04/03 09:54:24;;;;;;;19.00;3.60;;;;;;;;;;5059913;28;32672;-72
2021/04/03 09:56:50;;;;;;;19.55;3.80;;;;;;;;;;5062048;28;32302;-73
2021/04/03 09:59:17;;;;;;;28.17;3.67;;;;;;;;;;5057518;28;32884;-73
2021/04/03 10:01:43;;;;;;;20.50;3.05;;;;;;;;;;5053156;28;30651;-72
2021/04/03 10:04:09;;;;;;;18.30;3.78;;;;;;;;;;5040425;28;32168;-72
2021/04/03 10:06:34;;;;;;;14.98;3.22;;;;;;;;;;5047453;28;33127;-70
2021/04/03 10:09:00;;;;;;;20.13;3.58;;;;;;;;;;5053992;28;31777;-70
2021/04/03 10:11:26;;;;;;;27.33;4.65;;;;;;;;;;5057075;28;32096;-71
2021/04/03 10:13:51;;;;;;;18.50;4.03;;;;;;;;;;5053673;28;31009;-71
2021/04/03 10:16:17;;;;;;;20.48;4.03;;;;;;;;;;5058036;28;32459;-73
2021/04/03 10:18:43;;;;;;;15.98;2.80;;;;;;;;;;5055541;28;32141;-71
2021/04/03 10:21:10;;;;;;;16.35;3.78;;;;;;;;;;5040053;28;31918;-71
2021/04/03 10:23:36;;;;;;;18.63;4.28;;;;;;;;;;5043415;28;32199;-72
2021/04/03 10:26:02;;;;;;;14.18;3.40;;;;;;;;;;5043338;28;32907;-74
2021/04/03 10:28:27;;;;;;;13.10;3.33;;;;;;;;;;5057999;28;31927;-71
2021/04/03 10:30:53;;;;;;;22.90;3.63;;;;;;;;;;5051070;28;32013;-70
2021/04/03 10:33:19;;;;;;;15.05;3.08;;;;;;;;;;5057992;28;32417;-71
2021/04/03 10:35:44;;;;;;;20.65;3.28;;;;;;;;;;5051350;28;32091;-72
2021/04/03 10:38:10;;;;;;;16.50;3.38;;;;;;;;;;5058039;28;31990;-74
2021/04/03 10:40:36;;;;;;;15.40;3.22;;;;;;;;;;5049053;28;31686;-72
2021/04/03 10:43:01;;;;;;;15.52;3.72;;;;;;;;;;5057865;28;32265;-72
2021/04/03 10:45:27;;;;;;;15.48;3.83;;;;;;;;;;5046554;28;33222;-70
2021/04/03 10:47:53;;;;;;;16.45;3.53;;;;;;;;;;5051789;28;32647;-74
2021/04/03 10:50:19;;;;;;;11.75;2.40;;;;;;;;;;5046403;28;30754;-71
2021/04/03 10:52:44;;;;;;;10.02;2.28;;;;;;;;;;5053547;28;33179;-71
2021/04/03 10:55:10;;;;;;;12.98;2.90;;;;;;;;;;5055874;28;32324;-72
2021/04/03 10:57:36;;;;;;;22.85;3.92;;;;;;;;;;5058756;28;31204;-73
2021/04/03 11:00:03;;;;;;;12.70;3.55;;;;;;;;;;5046162;28;32178;-76
2021/04/03 11:02:28;;;;;;;20.60;4.13;;;;;;;;;;5036948;28;32849;-75
2021/04/03 11:04:54;;;;;;;16.27;3.97;;;;;;;;;;5054872;28;32317;-71
2021/04/03 11:07:20;;;;;;;17.05;4.18;;;;;;;;;;5048563;28;32594;-74
2021/04/03 11:09:45;;;;;;;21.25;3.95;;;;;;;;;;5055340;28;32062;-77
2021/04/03 11:12:11;;;;;;;20.02;3.95;;;;;;;;;;5055571;28;32512;-76
2021/04/03 11:14:37;;;;;;;15.65;5.40;;;;;;;;;;5058749;28;32901;-72
2021/04/03 11:17:03;;;;;;;17.77;3.40;;;;;;;;;;5055195;28;32956;-76
2021/04/03 11:19:29;;;;;;;19.05;3.58;;;;;;;;;;5054257;28;32082;-75
2021/04/03 11:21:54;;;;;;;16.73;3.78;;;;;;;;;;5053184;28;32458;-72
2021/04/03 11:24:20;;;;;;;16.85;3.25;;;;;;;;;;5054260;28;33253;-73
2021/04/03 11:26:46;;;;;;;16.73;3.35;;;;;;;;;;5057261;28;32586;-77
2021/04/03 11:29:11;;;;;;;19.02;3.45;;;;;;;;;;5043076;28;32079;-71
2021/04/03 11:31:37;;;;;;;18.90;4.32;;;;;;;;;;5053633;28;32706;-77
2021/04/03 11:34:02;;;;;;;10.75;2.65;;;;;;;;;;5055301;28;33103;-76
2021/04/03 11:36:28;;;;;;;12.73;3.25;;;;;;;;;;5055299;28;32025;-72
2021/04/03 11:38:54;;;;;;;17.83;4.45;;;;;;;;;;5054508;28;33060;-77
2021/04/03 11:41:20;;;;;;;14.63;2.70;;;;;;;;;;5057502;28;32359;-72
2021/04/03 11:43:45;;;;;;;13.82;3.03;;;;;;;;;;5057643;28;32824;-74
2021/04/03 11:46:11;;;;;;;13.63;2.95;;;;;;;;;;5055275;28;31672;-78
2021/04/03 11:48:37;;;;;;;19.20;2.95;;;;;;;;;;5058735;28;32041;-73
2021/04/03 11:51:02;;;;;;;16.52;3.58;;;;;;;;;;5051254;28;33122;-76
2021/04/03 11:53:28;;;;;;;22.65;3.22;;;;;;;;;;5056391;28;31993;-74
2021/04/03 11:55:54;;;;;;;15.68;3.50;;;;;;;;;;5054355;28;32839;-73
2021/04/03 11:58:20;;;;;;;18.63;3.45;;;;;;;;;;5057148;28;32078;-75
2021/04/03 12:00:45;;;;;;;13.20;2.75;;;;;;;;;;5041332;28;31101;-74
2021/04/03 12:03:11;;;;;;;22.30;4.18;;;;;;;;;;5037197;28;32410;-72
2021/04/03 12:05:37;;;;;;;19.02;3.72;;;;;;;;;;5037319;28;32923;-73
2021/04/03 12:08:02;;;;;;;18.13;3.60;;;;;;;;;;5053999;28;32024;-73
2021/04/03 12:10:28;;;;;;;24.17;3.22;;;;;;;;;;5055185;28;32677;-72
2021/04/03 12:12:54;;;;;;;21.65;3.45;;;;;;;;;;5056106;28;32337;-75
2021/04/03 12:15:19;;;;;;;15.30;3.70;;;;;;;;;;5056738;28;32025;-72
2021/04/03 12:17:46;;;;;;;20.38;3.88;;;;;;;;;;5055088;28;32969;-72
2021/04/03 12:20:13;;;;;;;17.02;3.05;;;;;;;;;;5046581;28;32264;-72
2021/04/03 12:22:39;;;;;;;16.17;3.85;;;;;;;;;;5052337;28;32153;-72
2021/04/03 12:25:05;;;;;;;19.85;3.72;;;;;;;;;;5050291;28;31812;-76
2021/04/03 12:27:31;;;;;;;18.23;3.90;;;;;;;;;;5057294;28;31192;-74
2021/04/03 12:30:02;;;;;;;15.77;2.90;;;;;;;;;;5042265;28;31509;-72
2021/04/03 12:32:31;;;;;;;20.05;4.03;;;;;;;;;;5061925;28;31849;-72
2021/04/03 12:34:57;;;;;;;18.80;3.13;;;;;;;;;;5054956;28;31998;-74
2021/04/03 12:37:22;;;;;;;15.70;3.72;;;;;;;;;;5058195;28;32871;-76
2021/04/03 12:39:48;;;;;;;12.57;2.90;;;;;;;;;;5053806;28;32601;-73
2021/04/03 12:42:14;;;;;;;21.25;3.60;;;;;;;;;;5055094;28;32327;-73
2021/04/03 12:44:39;;;;;;;10.75;3.88;;;;;;;;;;5056513;28;32535;-73
2021/04/03 12:47:05;;;;;;;16.73;4.07;;;;;;;;;;5057101;28;32171;-72
2021/04/03 12:49:31;;;;;;;20.05;3.92;;;;;;;;;;5052229;28;33431;-73
2021/04/03 12:51:57;;;;;;;23.10;4.35;;;;;;;;;;5040204;28;33767;-73
2021/04/03 12:54:24;;;;;;;18.95;3.63;;;;;;;;;;5059608;28;34923;-72
2021/04/03 12:56:49;;;;;;;14.45;3.92;;;;;;;;;;5060083;28;31867;-72
2021/04/03 12:59:15;;;;;;;22.45;4.43;;;;;;;;;;5057911;28;32729;-73
2021/04/03 13:01:41;;;;;;;17.40;3.78;;;;;;;;;;5054779;28;32238;-72
2021/04/03 13:04:07;;;;;;;24.23;4.07;;;;;;;;;;5059363;28;31947;-73
2021/04/03 13:06:33;;;;;;;16.10;3.88;;;;;;;;;;5060486;28;32195;-72
2021/04/03 13:08:58;;;;;;;18.85;3.88;;;;;;;;;;5060650;28;32476;-75
2021/04/03 13:11:24;;;;;;;14.50;3.63;;;;;;;;;;5061563;28;32048;-72
2021/04/03 13:13:50;;;;;;;19.27;3.75;;;;;;;;;;5066189;28;32934;-76
2021/04/03 13:16:15;;;;;;;26.20;4.35;;;;;;;;;;5057195;28;31743;-72
2021/04/03 13:18:41;;;;;;;22.55;4.10;;;;;;;;;;5056354;28;32386;-72
2021/04/03 13:21:07;;;;;;;17.75;4.63;;;;;;;;;;5054296;28;32427;-72
2021/04/03 13:23:33;;;;;;;26.70;4.38;;;;;;;;;;5053267;28;31685;-73
2021/04/03 13:25:58;;;;;;;26.45;4.60;;;;;;;;;;5060838;28;32371;-71
2021/04/03 13:28:24;;;;;;;16.45;3.85;;;;;;;;;;5058249;28;32687;-72
2021/04/03 13:30:50;;;;;;;19.27;4.63;;;;;;;;;;5046424;28;32252;-73
2021/04/03 13:33:15;;;;;;;24.25;3.67;;;;;;;;;;5059779;28;31913;-74
2021/04/03 13:35:41;;;;;;;20.55;4.72;;;;;;;;;;5061462;28;32695;-72
2021/04/03 13:38:07;;;;;;;28.00;4.78;;;;;;;;;;5042326;28;32537;-74
2021/04/03 13:40:32;;;;;;;22.35;4.40;;;;;;;;;;5036723;28;32063;-73
2021/04/03 13:42:58;;;;;;;15.68;4.55;;;;;;;;;;5053816;28;32981;-70
2021/04/03 13:45:24;;;;;;;19.88;3.75;;;;;;;;;;5051074;28;31996;-71
2021/04/03 13:47:49;;;;;;;17.95;4.43;;;;;;;;;;5054410;28;32545;-69
2021/04/03 13:50:15;;;;;;;20.20;4.43;;;;;;;;;;5056822;28;36714;-74
2021/04/03 13:52:41;;;;;;;20.95;4.68;;;;;;;;;;5040661;28;32419;-74
2021/04/03 13:55:07;;;;;;;21.95;5.53;;;;;;;;;;5050690;28;32037;-70
2021/04/03 13:57:32;;;;;;;22.55;4.45;;;;;;;;;;5052004;28;33068;-71
2021/04/03 13:59:58;;;;;;;23.88;5.05;;;;;;;;;;5054886;28;32472;-71
2021/04/03 14:02:24;;;;;;;18.55;4.55;;;;;;;;;;5049987;28;31945;-71
2021/04/03 14:04:50;;;;;;;18.55;5.03;;;;;;;;;;5052057;28;32010;-69
2021/04/03 14:07:16;;;;;;;18.88;4.68;;;;;;;;;;5057955;28;32293;-71
2021/04/03 14:09:42;;;;;;;20.75;4.55;;;;;;;;;;5048824;28;31632;-71
2021/04/03 14:12:08;;;;;;;15.60;3.95;;;;;;;;;;5055140;28;31811;-71
2021/04/03 14:14:34;;;;;;;22.48;4.95;;;;;;;;;;5046903;28;31528;-74
2021/04/03 14:17:00;;;;;;;24.88;5.72;;;;;;;;;;5056532;28;33177;-71
2021/04/03 14:19:25;;;;;;;24.33;5.55;;;;;;;;;;5038603;28;31072;-71
2021/04/03 14:21:51;;;;;;;29.10;5.45;;;;;;;;;;5054601;28;32973;-70
2021/04/03 14:24:17;;;;;;;26.88;6.38;;;;;;;;;;5056390;28;31651;-71
2021/04/03 14:26:42;;;;;;;29.42;4.93;;;;;;;;;;5054995;28;33499;-71
2021/04/03 14:29:08;;;;;;;31.17;5.40;;;;;;;;;;5051731;28;32850;-71
2021/04/03 14:31:34;;;;;;;26.27;5.40;;;;;;;;;;5041657;28;31714;-70